createdAt,value
2018-05-06T00:02:12.351Z,98531.97
2018-05-06T00:04:40.034Z,98530.60
2018-05-06T00:07:07.710Z,98525.69
2018-05-06T00:09:35.871Z,98531.78
2018-05-06T00:12:03.483Z,98534.33
2018-05-06T00:14:31.089Z,98534.49
2018-05-06T00:16:58.706Z,98535.61
2018-05-06T00:19:26.393Z,98536.89
2018-05-06T00:21:53.982Z,98529.45
2018-05-06T00:24:21.598Z,98531.41
2018-05-06T00:26:49.198Z,98526.22
2018-05-06T00:29:16.810Z,98527.44
2018-05-06T00:31:44.412Z,98536.45
2018-05-06T00:34:12.039Z,98539.31
2018-05-06T00:36:39.650Z,98540.73
2018-05-06T00:39:07.274Z,98534.47
2018-05-06T00:41:34.914Z,98530.49
2018-05-06T00:44:02.527Z,98531.13
2018-05-06T00:46:30.147Z,98533.00
2018-05-06T00:48:57.770Z,98538.95
2018-05-06T00:51:25.374Z,98540.36
2018-05-06T00:53:52.989Z,98543.23
2018-05-06T00:56:20.587Z,98548.37
2018-05-06T00:58:48.195Z,98551.96
2018-05-06T01:01:15.786Z,98546.16
2018-05-06T01:03:43.374Z,98550.77
2018-05-06T01:06:11.070Z,98545.77
2018-05-06T01:08:38.673Z,98550.09
2018-05-06T01:11:06.293Z,98548.38
2018-05-06T01:13:33.886Z,98544.45
2018-05-06T01:16:01.509Z,98549.66
2018-05-06T01:18:29.099Z,98552.85
2018-05-06T01:20:56.712Z,98556.64
2018-05-06T01:23:24.305Z,98556.64
2018-05-06T01:25:51.914Z,98556.44
2018-05-06T01:28:19.504Z,98561.34
2018-05-06T01:30:47.121Z,98565.43
2018-05-06T01:33:15.579Z,98562.20
2018-05-06T01:35:43.198Z,98565.03
2018-05-06T01:38:10.779Z,98559.87
2018-05-06T01:40:38.396Z,98564.27
2018-05-06T01:43:05.978Z,98564.61
2018-05-06T01:45:33.572Z,98562.53
2018-05-06T01:48:01.183Z,98565.12
2018-05-06T01:50:28.769Z,98565.38
2018-05-06T01:52:56.385Z,98563.59
2018-05-06T01:55:23.971Z,98563.27
2018-05-06T01:57:51.919Z,98566.21
2018-05-06T02:00:19.510Z,98561.16
2018-05-06T02:02:47.097Z,98563.66
2018-05-06T02:05:14.742Z,98565.70
2018-05-06T02:07:42.336Z,98564.97
2018-05-06T02:10:09.951Z,98567.68
2018-05-06T02:12:37.545Z,98569.78
2018-05-06T02:15:05.168Z,98573.82
2018-05-06T02:17:32.758Z,98576.97
2018-05-06T02:20:00.344Z,98569.85
2018-05-06T02:22:27.959Z,98565.45
2018-05-06T02:24:55.555Z,98568.60
2018-05-06T02:27:23.163Z,98560.42
2018-05-06T02:29:50.765Z,98561.40
2018-05-06T02:32:18.407Z,98562.02
2018-05-06T02:34:45.999Z,98561.84
2018-05-06T02:37:13.619Z,98556.20
2018-05-06T02:39:41.230Z,98555.34
2018-05-06T02:42:08.827Z,98557.22
2018-05-06T02:44:36.688Z,98555.66
2018-05-06T02:47:04.278Z,98556.52
2018-05-06T02:49:31.878Z,98556.58
2018-05-06T02:51:59.495Z,98562.98
2018-05-06T02:54:27.139Z,98556.30
2018-05-06T02:56:54.795Z,98557.32
2018-05-06T02:59:22.447Z,98560.03
2018-05-06T03:01:50.038Z,98557.33
2018-05-06T03:04:17.651Z,98550.41
2018-05-06T03:06:45.239Z,98550.16
2018-05-06T03:09:12.864Z,98551.28
2018-05-06T03:11:40.464Z,98551.58
2018-05-06T03:14:08.328Z,98550.81
2018-05-06T03:16:35.926Z,98542.95
2018-05-06T03:19:03.515Z,98544.31
2018-05-06T03:21:31.136Z,98546.80
2018-05-06T03:23:58.725Z,98542.98
2018-05-06T03:26:26.334Z,98550.02
2018-05-06T03:28:53.933Z,98553.98
2018-05-06T03:31:21.825Z,98548.50
2018-05-06T03:33:49.434Z,98555.18
2018-05-06T03:36:17.019Z,98555.39
2018-05-06T03:38:44.635Z,98553.08
2018-05-06T03:41:12.227Z,98552.69
2018-05-06T03:43:39.852Z,98562.89
2018-05-06T03:46:07.436Z,98564.27
2018-05-06T03:48:35.059Z,98567.14
2018-05-06T03:51:02.654Z,98571.08
2018-05-06T03:53:30.258Z,98569.91
2018-05-06T03:59:25.660Z,98578.94
2018-05-06T04:04:59.490Z,98581.64
2018-05-06T04:07:27.100Z,98576.27
2018-05-06T04:09:54.681Z,98571.38
2018-05-06T04:12:22.455Z,98564.08
2018-05-06T04:14:50.062Z,98571.20
2018-05-06T04:17:17.653Z,98566.59
2018-05-06T04:19:45.277Z,98570.34
2018-05-06T04:22:12.866Z,98570.00
2018-05-06T04:24:40.522Z,98567.42
2018-05-06T04:27:08.114Z,98566.50
2018-05-06T04:29:36.007Z,98567.96
2018-05-06T04:32:03.602Z,98567.19
2018-05-06T04:34:31.199Z,98566.30
2018-05-06T04:36:58.820Z,98567.30
2018-05-06T04:39:26.405Z,98571.84
2018-05-06T04:41:54.026Z,98579.56
2018-05-06T04:44:21.677Z,98579.50
2018-05-06T04:46:49.506Z,98578.56
2018-05-06T04:49:17.091Z,98587.00
2018-05-06T04:51:44.686Z,98584.39
2018-05-06T04:54:12.303Z,98583.69
2018-05-06T04:56:39.895Z,98580.38
2018-05-06T04:59:07.511Z,98575.44
2018-05-06T05:01:35.103Z,98574.82
2018-05-06T05:04:02.715Z,98573.17
2018-05-06T05:06:30.306Z,98570.70
2018-05-06T05:08:57.903Z,98573.94
2018-05-06T05:11:25.515Z,98571.41
2018-05-06T05:13:53.113Z,98574.13
2018-05-06T05:16:20.719Z,98571.88
2018-05-06T05:18:48.302Z,98581.55
2018-05-06T05:21:16.094Z,98584.36
2018-05-06T05:23:43.686Z,98588.33
2018-05-06T05:26:11.332Z,98583.30
2018-05-06T05:28:38.939Z,98591.39
2018-05-06T05:31:06.528Z,98593.16
2018-05-06T05:33:34.151Z,98599.97
2018-05-06T05:36:01.735Z,98593.89
2018-05-06T05:38:29.534Z,98591.38
2018-05-06T05:40:57.117Z,98591.60
2018-05-06T05:43:24.702Z,98597.20
2018-05-06T05:45:52.315Z,98598.00
2018-05-06T05:48:19.917Z,98599.02
2018-05-06T05:50:47.530Z,98603.65
2018-05-06T05:53:15.122Z,98600.16
2018-05-06T05:55:42.770Z,98600.29
2018-05-06T05:58:10.429Z,98603.24
2018-05-06T06:00:38.040Z,98605.71
2018-05-06T06:03:05.653Z,98603.42
2018-05-06T06:05:33.254Z,98603.33
2018-05-06T06:08:00.866Z,98605.42
2018-05-06T06:10:28.466Z,98611.45
2018-05-06T06:12:56.278Z,98607.78
2018-05-06T06:15:23.874Z,98594.44
2018-05-06T06:17:51.463Z,98612.05
2018-05-06T06:20:19.079Z,98609.59
2018-05-06T06:22:46.680Z,98613.25
2018-05-06T06:25:14.306Z,98611.48
2018-05-06T06:27:41.898Z,98604.42
2018-05-06T06:30:09.952Z,98606.77
2018-05-06T06:32:37.542Z,98604.75
2018-05-06T06:35:05.126Z,98605.45
2018-05-06T06:37:32.745Z,98604.14
2018-05-06T06:40:00.334Z,98603.11
2018-05-06T06:42:27.943Z,98601.40
2018-05-06T06:44:55.530Z,98601.95
2018-05-06T06:47:23.484Z,98598.03
2018-05-06T06:49:51.080Z,98597.31
2018-05-06T06:52:18.680Z,98598.06
2018-05-06T06:54:46.296Z,98596.61
2018-05-06T06:57:13.920Z,98594.89
2018-05-06T06:59:41.528Z,98591.08
2018-05-06T07:02:09.118Z,98581.56
2018-05-06T07:04:37.011Z,98587.19
2018-05-06T07:07:04.605Z,98577.27
2018-05-06T07:09:32.190Z,98582.72
2018-05-06T07:11:59.811Z,98580.72
2018-05-06T07:14:27.404Z,98585.58
2018-05-06T07:16:55.027Z,98589.52
2018-05-06T07:19:22.664Z,98586.38
2018-05-06T07:21:50.639Z,98591.25
2018-05-06T07:24:18.227Z,98581.72
2018-05-06T07:26:45.819Z,98587.16
2018-05-06T07:29:13.427Z,98585.15
2018-05-06T07:31:41.025Z,98590.73
2018-05-06T07:34:08.652Z,98583.44
2018-05-06T07:36:36.239Z,98584.91
2018-05-06T07:39:04.074Z,98581.30
2018-05-06T07:41:31.814Z,98586.77
2018-05-06T07:43:59.429Z,98580.89
2018-05-06T07:46:27.050Z,98575.51
2018-05-06T07:48:54.766Z,98576.33
2018-05-06T07:51:22.375Z,98577.03
2018-05-06T07:53:49.984Z,98569.48
2018-05-06T07:56:17.605Z,98578.06
2018-05-06T07:58:45.638Z,98571.24
2018-05-06T08:01:13.191Z,98573.40
2018-05-06T08:03:40.847Z,98578.38
2018-05-06T08:06:08.437Z,98577.83
2018-05-06T08:08:36.054Z,98574.34
2018-05-06T08:11:03.650Z,98570.53
2018-05-06T08:13:31.568Z,98571.02
2018-05-06T08:15:59.167Z,98573.03
2018-05-06T08:18:26.757Z,98570.29
2018-05-06T08:20:54.370Z,98571.84
2018-05-06T08:23:22.711Z,98565.81
2018-05-06T08:25:50.348Z,98566.51
2018-05-06T08:28:17.935Z,98561.63
2018-05-06T08:30:45.738Z,98562.37
2018-05-06T08:33:13.333Z,98558.11
2018-05-06T08:35:40.922Z,98559.92
2018-05-06T08:38:09.171Z,98556.47
2018-05-06T08:40:36.758Z,98559.20
2018-05-06T08:43:04.452Z,98559.30
2018-05-06T08:45:32.043Z,98556.33
2018-05-06T08:47:59.638Z,98554.22
2018-05-06T08:50:27.256Z,98558.17
2018-05-06T08:52:54.842Z,98557.50
2018-05-06T08:55:22.658Z,98552.80
2018-05-06T08:57:50.252Z,98546.77
2018-05-06T09:00:17.839Z,98551.91
2018-05-06T09:02:45.453Z,98548.08
2018-05-06T09:05:13.048Z,98546.62
2018-05-06T09:07:40.659Z,98550.05
2018-05-06T09:10:08.258Z,98552.50
2018-05-06T09:12:35.915Z,98550.05
2018-05-06T09:15:03.510Z,98541.61
2018-05-06T09:17:31.095Z,98547.61
2018-05-06T09:19:58.774Z,98543.80
2018-05-06T09:22:26.402Z,98546.64
2018-05-06T09:24:53.979Z,98547.09
2018-05-06T09:27:21.583Z,98550.73
2018-05-06T09:29:49.456Z,98552.80
2018-05-06T09:32:17.117Z,98549.70
2018-05-06T09:34:44.662Z,98545.37
2018-05-06T09:37:12.302Z,98542.47
2018-05-06T09:39:39.895Z,98549.00
2018-05-06T09:42:07.508Z,98546.44
2018-05-06T09:44:35.091Z,98544.14
2018-05-06T09:47:03.129Z,98538.47
2018-05-06T09:49:30.765Z,98528.78
2018-05-06T09:51:58.382Z,98530.34
2018-05-06T09:54:26.004Z,98540.09
2018-05-06T09:56:53.595Z,98542.17
2018-05-06T09:59:21.203Z,98531.61
2018-05-06T10:01:48.798Z,98538.29
2018-05-06T10:04:16.405Z,98530.70
2018-05-06T10:06:43.990Z,98534.39
2018-05-06T10:09:11.603Z,98522.83
2018-05-06T10:11:39.200Z,98520.77
2018-05-06T10:14:06.811Z,98523.51
2018-05-06T10:16:34.407Z,98515.39
2018-05-06T10:19:02.123Z,98517.59
2018-05-06T10:21:29.730Z,98521.39
2018-05-06T10:23:57.343Z,98524.20
2018-05-06T10:26:24.940Z,98515.55
2018-05-06T10:28:52.559Z,98516.02
2018-05-06T10:31:20.146Z,98500.62
2018-05-06T10:33:47.764Z,98504.52
2018-05-06T10:36:15.354Z,98506.74
2018-05-06T10:38:42.998Z,98506.61
2018-05-06T10:41:10.594Z,98503.42
2018-05-06T10:43:38.209Z,98500.28
2018-05-06T10:46:05.820Z,98496.17
2018-05-06T10:48:33.454Z,98498.59
2018-05-06T10:51:01.058Z,98498.77
2018-05-06T10:53:28.675Z,98503.09
2018-05-06T10:55:56.266Z,98489.45
2018-05-06T10:58:24.069Z,98488.92
2018-05-06T11:00:51.658Z,98486.44
2018-05-06T11:03:19.266Z,98487.59
2018-05-06T11:05:46.881Z,98478.07
2018-05-06T11:08:14.596Z,98476.78
2018-05-06T11:10:42.212Z,98478.97
2018-05-06T11:13:09.811Z,98478.49
2018-05-06T11:15:37.402Z,98475.51
2018-05-06T11:18:05.015Z,98477.55
2018-05-06T11:20:32.608Z,98472.52
2018-05-06T11:23:00.654Z,98461.72
2018-05-06T11:25:28.246Z,98457.91
2018-05-06T11:27:55.841Z,98459.02
2018-05-06T11:30:23.471Z,98456.14
2018-05-06T11:32:51.087Z,98458.85
2018-05-06T11:35:18.718Z,98455.78
2018-05-06T11:37:46.313Z,98450.90
2018-05-06T11:40:13.922Z,98457.11
2018-05-06T11:42:41.513Z,98456.20
2018-05-06T11:45:09.127Z,98451.67
2018-05-06T11:47:36.731Z,98440.81
2018-05-06T11:50:04.365Z,98450.64
2018-05-06T11:52:31.956Z,98456.91
2018-05-06T11:55:00.129Z,98446.80
2018-05-06T11:57:27.682Z,98446.42
2018-05-06T11:59:56.018Z,98437.32
2018-05-06T12:02:23.683Z,98441.69
2018-05-06T12:04:51.259Z,98443.67
2018-05-06T12:07:18.863Z,98435.45
2018-05-06T12:09:46.446Z,98428.16
2018-05-06T12:12:14.220Z,98433.52
2018-05-06T12:14:41.887Z,98428.77
2018-05-06T12:17:09.470Z,98424.64
2018-05-06T12:19:37.107Z,98417.90
2018-05-06T12:22:04.710Z,98419.41
2018-05-06T12:24:32.495Z,98413.95
2018-05-06T12:27:01.080Z,98418.43
2018-05-06T12:29:28.971Z,98412.90
2018-05-06T12:31:56.588Z,98409.48
2018-05-06T12:34:24.186Z,98416.39
2018-05-06T12:36:51.799Z,98411.36
2018-05-06T12:39:19.391Z,98409.47
2018-05-06T12:41:47.194Z,98413.41
2018-05-06T12:44:14.793Z,98402.78
2018-05-06T12:46:42.384Z,98400.70
2018-05-06T12:49:10.004Z,98393.02
2018-05-06T12:51:37.595Z,98391.23
2018-05-06T12:54:05.222Z,98393.69
2018-05-06T12:56:32.807Z,98393.07
2018-05-06T12:59:00.841Z,98395.58
2018-05-06T13:01:28.436Z,98397.18
2018-05-06T13:03:56.043Z,98388.19
2018-05-06T13:06:23.653Z,98388.91
2018-05-06T13:08:51.250Z,98376.13
2018-05-06T13:11:18.864Z,98379.39
2018-05-06T13:13:46.462Z,98367.33
2018-05-06T13:16:14.422Z,98362.90
2018-05-06T13:18:42.033Z,98355.77
2018-05-06T13:21:09.627Z,98353.48
2018-05-06T13:23:37.245Z,98347.69
2018-05-06T13:26:04.912Z,98346.09
2018-05-06T13:28:32.533Z,98345.39
2018-05-06T13:31:00.141Z,98351.98
2018-05-06T13:33:27.782Z,98343.97
2018-05-06T13:35:55.371Z,98336.59
2018-05-06T13:38:22.965Z,98335.38
2018-05-06T13:40:50.675Z,98336.07
2018-05-06T13:43:18.263Z,98335.75
2018-05-06T13:45:45.883Z,98331.17
2018-05-06T13:48:13.475Z,98332.78
2018-05-06T13:50:41.289Z,98317.61
2018-05-06T13:53:08.879Z,98322.92
2018-05-06T13:55:36.550Z,98319.84
2018-05-06T13:58:04.229Z,98312.98
2018-05-06T14:00:31.833Z,98311.98
2018-05-06T14:02:59.443Z,98314.02
2018-05-06T14:05:27.041Z,98307.20
2018-05-06T14:07:54.909Z,98312.73
2018-05-06T14:10:22.527Z,98301.75
2018-05-06T14:12:50.123Z,98306.53
2018-05-06T14:15:17.871Z,98313.73
2018-05-06T14:17:45.465Z,98306.23
2018-05-06T14:20:13.079Z,98304.72
2018-05-06T14:22:40.663Z,98299.48
2018-05-06T14:25:08.275Z,98295.64
2018-05-06T14:27:35.874Z,98304.64
2018-05-06T14:30:03.532Z,98304.16
2018-05-06T14:32:31.115Z,98304.60
2018-05-06T14:34:58.711Z,98306.72
2018-05-06T14:37:26.333Z,98297.98
2018-05-06T14:39:54.082Z,98301.20
2018-05-06T14:42:21.749Z,98302.97
2018-05-06T14:44:49.333Z,98300.69
2018-05-06T14:47:28.572Z,98305.55
2018-05-06T14:49:56.163Z,98294.77
2018-05-06T14:52:23.794Z,98297.91
2018-05-06T14:54:51.393Z,98303.31
2018-05-06T14:57:18.978Z,98297.20
2018-05-06T14:59:46.594Z,98300.80
2018-05-06T15:02:14.183Z,98294.67
2018-05-06T15:04:41.803Z,98292.72
2018-05-06T15:07:09.400Z,98296.59
2018-05-06T15:09:37.039Z,98298.78
2018-05-06T15:12:04.639Z,98294.30
2018-05-06T15:14:37.080Z,98283.53
2018-05-06T15:17:04.690Z,98287.59
2018-05-06T15:19:32.298Z,98283.92
2018-05-06T15:21:59.924Z,98280.08
2018-05-06T15:24:27.519Z,98278.73
2018-05-06T15:26:55.543Z,98272.83
2018-05-06T15:29:23.200Z,98277.13
2018-05-06T15:31:50.765Z,98270.52
2018-05-06T15:34:18.382Z,98276.42
2018-05-06T15:36:45.971Z,98267.40
2018-05-06T15:39:13.586Z,98270.45
2018-05-06T15:41:41.176Z,98267.17
2018-05-06T15:44:08.798Z,98270.52
2018-05-06T15:46:36.402Z,98270.04
2018-05-06T15:49:04.003Z,98277.55
2018-05-06T15:51:31.618Z,98275.39
2018-05-06T15:53:59.222Z,98274.14
2018-05-06T15:56:26.844Z,98271.17
2018-05-06T15:58:54.469Z,98262.35
2018-05-06T16:01:22.345Z,98269.28
2018-05-06T16:04:01.853Z,98267.51
2018-05-06T16:06:29.780Z,98267.66
2018-05-06T16:08:57.334Z,98269.42
2018-05-06T16:11:24.933Z,98266.13
2018-05-06T16:13:52.561Z,98260.73
2018-05-06T16:16:20.156Z,98262.94
2018-05-06T16:18:47.771Z,98256.61
2018-05-06T16:21:15.370Z,98259.76
2018-05-06T16:23:43.001Z,98259.77
2018-05-06T16:26:10.599Z,98256.95
2018-05-06T16:28:38.187Z,98261.45
2018-05-06T16:31:05.798Z,98257.20
2018-05-06T16:33:33.395Z,98257.20
2018-05-06T16:36:01.016Z,98254.35
2018-05-06T16:38:28.616Z,98258.97
2018-05-06T16:40:56.361Z,98264.41
2018-05-06T16:43:23.952Z,98259.27
2018-05-06T16:45:51.638Z,98262.48
2018-05-06T16:48:19.285Z,98267.82
2018-05-06T16:50:46.887Z,98265.27
2018-05-06T16:53:14.498Z,98262.87
2018-05-06T16:55:42.097Z,98265.80
2018-05-06T16:58:09.908Z,98265.42
2018-05-06T17:00:37.518Z,98272.73
2018-05-06T17:03:05.141Z,98266.31
2018-05-06T17:05:32.769Z,98267.39
2018-05-06T17:08:00.366Z,98268.10
2018-05-06T17:10:27.986Z,98263.20
2018-05-06T17:12:55.581Z,98269.37
2018-05-06T17:15:23.296Z,98261.72
2018-05-06T17:17:50.898Z,98262.87
2018-05-06T17:20:18.503Z,98266.25
2018-05-06T17:22:46.115Z,98271.84
2018-05-06T17:25:13.727Z,98267.59
2018-05-06T17:27:41.341Z,98259.16
2018-05-06T17:30:09.190Z,98265.58
2018-05-06T17:32:36.830Z,98261.14
2018-05-06T17:35:04.436Z,98263.70
2018-05-06T17:37:32.041Z,98267.64
2018-05-06T17:39:59.668Z,98267.55
2018-05-06T17:42:27.266Z,98267.44
2018-05-06T17:44:55.083Z,98272.05
2018-05-06T17:47:22.669Z,98272.37
2018-05-06T17:49:50.291Z,98269.89
2018-05-06T17:52:17.879Z,98275.33
2018-05-06T17:54:45.487Z,98275.59
2018-05-06T17:57:13.107Z,98269.77
2018-05-06T17:59:40.709Z,98278.09
2018-05-06T18:02:08.318Z,98281.57
2018-05-06T18:04:35.910Z,98286.82
2018-05-06T18:07:03.647Z,98281.94
2018-05-06T18:09:31.237Z,98287.27
2018-05-06T18:11:58.829Z,98288.95
2018-05-06T18:14:26.450Z,98285.33
2018-05-06T18:16:54.039Z,98297.70
2018-05-06T18:19:21.655Z,98295.84
2018-05-06T18:21:49.245Z,98294.02
2018-05-06T18:24:16.858Z,98293.92
2018-05-06T18:26:44.449Z,98299.34
2018-05-06T18:29:12.408Z,98304.99
2018-05-06T18:34:13.922Z,98309.34
2018-05-06T18:36:41.618Z,98308.55
2018-05-06T18:39:09.401Z,98313.02
2018-05-06T18:41:37.002Z,98319.54
2018-05-06T18:44:04.590Z,98318.91
2018-05-06T18:46:32.202Z,98323.92
2018-05-06T18:48:59.812Z,98318.45
2018-05-06T18:51:27.432Z,98318.81
2018-05-06T18:53:55.028Z,98321.95
2018-05-06T18:56:22.653Z,98325.27
2018-05-06T18:58:50.570Z,98317.51
2018-05-06T19:01:18.165Z,98323.92
2018-05-06T19:03:45.782Z,98326.94
2018-05-06T19:06:13.371Z,98332.11
2018-05-06T19:08:40.995Z,98329.91
2018-05-06T19:11:08.594Z,98331.91
2018-05-06T19:13:36.207Z,98334.38
2018-05-06T19:16:03.811Z,98338.16
2018-05-06T19:18:31.434Z,98339.77
2018-05-06T19:20:59.050Z,98335.62
2018-05-06T19:23:26.680Z,98339.03
2018-05-06T19:25:54.275Z,98342.52
2018-05-06T19:28:21.891Z,98345.25
2018-05-06T19:30:49.506Z,98346.22
2018-05-06T19:33:17.121Z,98345.29
2018-05-06T19:35:44.705Z,98348.52
2018-05-06T19:38:12.327Z,98337.59
2018-05-06T19:40:39.915Z,98341.81
2018-05-06T19:43:07.981Z,98338.95
2018-05-06T19:45:35.678Z,98340.64
2018-05-06T19:48:03.276Z,98347.04
2018-05-06T19:50:30.911Z,98348.36
2018-05-06T19:52:58.513Z,98342.00
2018-05-06T19:55:26.144Z,98350.95
2018-05-06T19:57:53.734Z,98348.27
2018-05-06T20:00:21.346Z,98351.17
2018-05-06T20:02:49.713Z,98355.05
2018-05-06T20:05:18.247Z,98356.54
2018-05-06T20:07:45.831Z,98354.20
2018-05-06T20:10:13.444Z,98357.45
2018-05-06T20:12:41.048Z,98352.81
2018-05-06T20:15:08.667Z,98357.66
2018-05-06T20:17:36.268Z,98359.94
2018-05-06T20:20:03.890Z,98354.30
2018-05-06T20:22:31.480Z,98360.32
2018-05-06T20:24:59.108Z,98356.55
2018-05-06T20:27:26.704Z,98354.56
2018-05-06T20:29:54.318Z,98358.21
2018-05-06T20:32:21.903Z,98357.19
2018-05-06T20:34:49.517Z,98350.97
2018-05-06T20:37:17.102Z,98363.02
2018-05-06T20:39:44.722Z,98356.08
2018-05-06T20:42:12.314Z,98356.52
2018-05-06T20:44:39.941Z,98359.53
2018-05-06T20:47:07.534Z,98365.51
2018-05-06T20:49:35.525Z,98360.45
2018-05-06T20:52:03.116Z,98355.81
2018-05-06T20:54:30.712Z,98363.41
2018-05-06T20:56:58.332Z,98362.64
2018-05-06T20:59:25.922Z,98361.20
2018-05-06T21:01:53.537Z,98367.16
2018-05-06T21:04:21.133Z,98364.69
2018-05-06T21:06:48.745Z,98361.05
2018-05-06T21:09:16.337Z,98361.55
2018-05-06T21:11:43.924Z,98367.59
2018-05-06T21:14:11.537Z,98365.88
2018-05-06T21:16:39.126Z,98368.91
2018-05-06T21:19:06.830Z,98367.05
2018-05-06T21:21:34.372Z,98366.91
2018-05-06T21:24:02.026Z,98362.36
2018-05-06T21:26:29.622Z,98361.70
2018-05-06T21:28:57.429Z,98359.25
2018-05-06T21:31:25.041Z,98361.25
2018-05-06T21:33:52.643Z,98362.84
2018-05-06T21:36:20.311Z,98365.28
2018-05-06T21:38:47.869Z,98357.12
2018-05-06T21:41:15.484Z,98364.88
2018-05-06T21:43:43.081Z,98362.50
2018-05-06T21:46:10.976Z,98356.88
2018-05-06T21:48:38.578Z,98357.17
2018-05-06T21:51:11.924Z,98359.27
2018-05-06T21:53:39.572Z,98358.52
2018-05-06T21:56:07.283Z,98363.01
2018-05-06T21:58:34.903Z,98361.07
2018-05-06T22:01:02.491Z,98361.86
2018-05-06T22:03:30.099Z,98360.01
2018-05-06T22:05:57.693Z,98358.92
2018-05-06T22:08:25.326Z,98363.80
2018-05-06T22:10:52.917Z,98358.17
2018-05-06T22:13:20.505Z,98358.48
2018-05-06T22:15:48.211Z,98359.72
2018-05-06T22:18:15.805Z,98361.41
2018-05-06T22:20:43.424Z,98361.02
2018-05-06T22:23:11.080Z,98357.61
2018-05-06T22:25:38.874Z,98366.22
2018-05-06T22:28:06.463Z,98366.12
2018-05-06T22:30:34.059Z,98360.88
2018-05-06T22:33:01.671Z,98367.69
2018-05-06T22:35:29.259Z,98365.02
2018-05-06T22:37:56.865Z,98359.75
2018-05-06T22:40:25.377Z,98361.61
2018-05-06T22:42:53.003Z,98356.73
2018-05-06T22:45:20.602Z,98361.22
2018-05-06T22:47:48.206Z,98360.25
2018-05-06T22:50:15.840Z,98359.63
2018-05-06T22:52:43.439Z,98355.64
2018-05-06T22:55:11.056Z,98355.23
2018-05-06T22:57:38.660Z,98355.14
2018-05-06T23:00:06.285Z,98361.09
2018-05-06T23:02:33.878Z,98356.70
2018-05-06T23:05:01.539Z,98350.69
2018-05-06T23:07:29.151Z,98352.05
2018-05-06T23:09:57.524Z,98344.78
2018-05-06T23:12:25.140Z,98349.66
2018-05-06T23:14:52.767Z,98339.64
2018-05-06T23:17:20.371Z,98340.63
2018-05-06T23:19:47.964Z,98341.50
2018-05-06T23:22:15.946Z,98338.14
2018-05-06T23:24:43.535Z,98341.10
2018-05-06T23:27:11.124Z,98339.44
2018-05-06T23:29:38.733Z,98340.47
2018-05-06T23:32:06.327Z,98340.83
2018-05-06T23:34:33.936Z,98335.45
2018-05-06T23:37:01.527Z,98340.42
2018-05-06T23:39:29.490Z,98336.11
2018-05-06T23:41:57.079Z,98341.17
2018-05-06T23:44:24.691Z,98342.16
2018-05-06T23:46:52.309Z,98340.16
2018-05-06T23:49:19.913Z,98334.80
2018-05-06T23:51:47.554Z,98340.81
2018-05-06T23:54:15.150Z,98339.29
2018-05-06T23:56:42.772Z,98336.87
2018-05-06T23:59:10.363Z,98340.23
